BAW6LT EGLL-EGCC
Flight info
| Callsign | BAW6LT |
|---|---|
| Flight time | 0h 35m |
| Altitude | 18000 |
| Route | ULTIB T420 ELVOS |
| Aircraft | A35K/H-SDE2E3GHIJ3J4J5LM1ORWXY/LB1D1 |
Departure
| Time | 2026-05-05 16:48 |
|---|---|
| Airport | London Heathrow Airport (EGLL) |
Arrival
| Time | 2026-05-05 17:23 |
|---|---|
| Airport | Manchester Airport (EGCC) |
| Time | Latitude | Longitude | Altitude | Speed | Heading |
|---|---|---|---|---|---|
| 2026-05-05 16:14 | 51.47051 | -0.48008 | 93 ft | 0 kts | 269° |
| 2026-05-05 16:38 | 51.47051 | -0.47987 | 96 ft | 5 kts | 269° |
| 2026-05-05 16:38 | 51.47052 | -0.47944 | 96 ft | 5 kts | 269° |
| 2026-05-05 16:38 | 51.47053 | -0.47908 | 95 ft | 5 kts | 254° |
| 2026-05-05 16:39 | 51.47060 | -0.47881 | 96 ft | 4 kts | 217° |
| 2026-05-05 16:39 | 51.47076 | -0.47869 | 96 ft | 4 kts | 181° |
| 2026-05-05 16:39 | 51.47103 | -0.47870 | 95 ft | 4 kts | 178° |
| 2026-05-05 16:39 | 51.47110 | -0.47870 | 93 ft | 4 kts | 179° |
| 2026-05-05 16:44 | 51.47109 | -0.47870 | 93 ft | 0 kts | 179° |
| 2026-05-05 16:44 | 51.47108 | -0.47870 | 93 ft | 1 kts | 179° |
| 2026-05-05 16:44 | 51.47069 | -0.47869 | 96 ft | 12 kts | 179° |
| 2026-05-05 16:45 | 51.46946 | -0.47867 | 93 ft | 23 kts | 179° |
| 2026-05-05 16:45 | 51.46757 | -0.47866 | 93 ft | 31 kts | 180° |
| 2026-05-05 16:45 | 51.46673 | -0.47895 | 93 ft | 6 kts | 229° |
| 2026-05-05 16:45 | 51.46653 | -0.48058 | 92 ft | 21 kts | 269° |
| 2026-05-05 16:46 | 51.46653 | -0.48300 | 94 ft | 23 kts | 270° |
| 2026-05-05 16:46 | 51.46638 | -0.48425 | 98 ft | 1 kts | 225° |
| 2026-05-05 16:46 | 51.46629 | -0.48435 | 99 ft | 0 kts | 214° |
| 2026-05-05 16:47 | 51.46624 | -0.48441 | 98 ft | 4 kts | 212° |
| 2026-05-05 16:47 | 51.46521 | -0.48462 | 97 ft | 23 kts | 170° |
| 2026-05-05 16:47 | 51.46484 | -0.48391 | 96 ft | 10 kts | 101° |
| 2026-05-05 16:47 | 51.46478 | -0.48201 | 92 ft | 32 kts | 90° |
| 2026-05-05 16:48 | 51.46485 | -0.47485 | 90 ft | 102 kts | 88° |
| 2026-05-05 16:48 | 51.46487 | -0.45963 | 94 ft | 169 kts | 88° |
| 2026-05-05 16:48 | 51.46478 | -0.43893 | 497 ft | 197 kts | 89° |
| 2026-05-05 16:48 | 51.46693 | -0.41731 | 1476 ft | 191 kts | 67° |
| 2026-05-05 16:49 | 51.47414 | -0.40074 | 2522 ft | 179 kts | 45° |
| 2026-05-05 16:49 | 51.48348 | -0.38624 | 2934 ft | 197 kts | 43° |
| 2026-05-05 16:49 | 51.49355 | -0.36992 | 3360 ft | 212 kts | 46° |
| 2026-05-05 16:49 | 51.50386 | -0.35181 | 3773 ft | 227 kts | 48° |
| 2026-05-05 16:50 | 51.51428 | -0.33170 | 4216 ft | 244 kts | 54° |
| 2026-05-05 16:50 | 51.52173 | -0.30642 | 4744 ft | 258 kts | 70° |
| 2026-05-05 16:50 | 51.52757 | -0.27871 | 5429 ft | 265 kts | 71° |
| 2026-05-05 16:50 | 51.53496 | -0.25129 | 6120 ft | 271 kts | 57° |
| 2026-05-05 16:51 | 51.54859 | -0.23049 | 6789 ft | 276 kts | 27° |
| 2026-05-05 16:51 | 51.56706 | -0.22267 | 7505 ft | 278 kts | 359° |
| 2026-05-05 16:51 | 51.58618 | -0.22660 | 8324 ft | 279 kts | 347° |
| 2026-05-05 16:51 | 51.60532 | -0.23316 | 9075 ft | 283 kts | 346° |
| 2026-05-05 16:52 | 51.62399 | -0.24351 | 9829 ft | 285 kts | 330° |
| 2026-05-05 16:52 | 51.64130 | -0.25967 | 10427 ft | 294 kts | 326° |
| 2026-05-05 16:52 | 51.65923 | -0.27744 | 10762 ft | 311 kts | 327° |
| 2026-05-05 16:52 | 51.67819 | -0.29595 | 11101 ft | 327 kts | 327° |
| 2026-05-05 16:53 | 51.69810 | -0.31534 | 11428 ft | 342 kts | 327° |
| 2026-05-05 16:53 | 51.71868 | -0.33532 | 11869 ft | 350 kts | 327° |
| 2026-05-05 16:53 | 51.73977 | -0.35570 | 12450 ft | 355 kts | 327° |
| 2026-05-05 16:53 | 51.75644 | -0.37178 | 12918 ft | 359 kts | 327° |
| 2026-05-05 16:54 | 51.77799 | -0.39257 | 13517 ft | 362 kts | 327° |
| 2026-05-05 16:54 | 51.79964 | -0.41349 | 14004 ft | 366 kts | 327° |
| 2026-05-05 16:54 | 51.82164 | -0.43476 | 14518 ft | 370 kts | 327° |
| 2026-05-05 16:54 | 51.84384 | -0.45626 | 15013 ft | 374 kts | 327° |
| 2026-05-05 16:55 | 51.86635 | -0.47814 | 15529 ft | 379 kts | 327° |
| 2026-05-05 16:55 | 51.88903 | -0.50024 | 16050 ft | 383 kts | 327° |
| 2026-05-05 16:55 | 51.91200 | -0.52260 | 16578 ft | 387 kts | 327° |
| 2026-05-05 16:55 | 51.93517 | -0.54519 | 17098 ft | 391 kts | 327° |
| 2026-05-05 16:56 | 51.95852 | -0.56797 | 17627 ft | 395 kts | 327° |
| 2026-05-05 16:56 | 51.98208 | -0.59098 | 17915 ft | 397 kts | 327° |
| 2026-05-05 16:56 | 52.00616 | -0.61458 | 17969 ft | 409 kts | 327° |
| 2026-05-05 16:56 | 52.03064 | -0.63858 | 17967 ft | 412 kts | 327° |
| 2026-05-05 16:57 | 52.05525 | -0.66273 | 17968 ft | 413 kts | 327° |
| 2026-05-05 16:57 | 52.07948 | -0.68651 | 17963 ft | 413 kts | 327° |
| 2026-05-05 16:57 | 52.10404 | -0.71064 | 17967 ft | 413 kts | 327° |
| 2026-05-05 16:57 | 52.12865 | -0.73485 | 17965 ft | 413 kts | 327° |
| 2026-05-05 16:58 | 52.15324 | -0.75903 | 17964 ft | 413 kts | 327° |
| 2026-05-05 16:58 | 52.17781 | -0.78327 | 17961 ft | 413 kts | 327° |
| 2026-05-05 16:58 | 52.20234 | -0.80754 | 17962 ft | 413 kts | 327° |
| 2026-05-05 16:58 | 52.22682 | -0.83179 | 17962 ft | 413 kts | 327° |
| 2026-05-05 16:59 | 52.25139 | -0.85616 | 17961 ft | 413 kts | 327° |
| 2026-05-05 16:59 | 52.27595 | -0.88054 | 17963 ft | 413 kts | 327° |
| 2026-05-05 16:59 | 52.30047 | -0.90491 | 17956 ft | 413 kts | 327° |
| 2026-05-05 16:59 | 52.32498 | -0.92932 | 17966 ft | 413 kts | 327° |
| 2026-05-05 17:00 | 52.34949 | -0.95377 | 17966 ft | 413 kts | 327° |
| 2026-05-05 17:00 | 52.37399 | -0.97823 | 17955 ft | 412 kts | 327° |
| 2026-05-05 17:00 | 52.39051 | -0.99473 | 17969 ft | 413 kts | 327° |
| 2026-05-05 17:00 | 52.41469 | -1.01892 | 17970 ft | 413 kts | 327° |
| 2026-05-05 17:01 | 52.43917 | -1.04343 | 17973 ft | 413 kts | 327° |
| 2026-05-05 17:01 | 52.46372 | -1.06786 | 17987 ft | 413 kts | 327° |
| 2026-05-05 17:01 | 52.48821 | -1.09240 | 17979 ft | 412 kts | 327° |
| 2026-05-05 17:01 | 52.51272 | -1.11700 | 17985 ft | 412 kts | 327° |
| 2026-05-05 17:02 | 52.53716 | -1.14164 | 17984 ft | 412 kts | 327° |
| 2026-05-05 17:02 | 52.56155 | -1.16629 | 17994 ft | 412 kts | 327° |
| 2026-05-05 17:02 | 52.58602 | -1.19097 | 17992 ft | 412 kts | 327° |
| 2026-05-05 17:02 | 52.61035 | -1.21560 | 17991 ft | 412 kts | 327° |
| 2026-05-05 17:03 | 52.63480 | -1.24037 | 17994 ft | 412 kts | 327° |
| 2026-05-05 17:03 | 52.65923 | -1.26513 | 17994 ft | 412 kts | 327° |
| 2026-05-05 17:03 | 52.68363 | -1.28988 | 17995 ft | 412 kts | 327° |
| 2026-05-05 17:03 | 52.70799 | -1.31461 | 17851 ft | 412 kts | 327° |
| 2026-05-05 17:04 | 52.73243 | -1.33940 | 17592 ft | 413 kts | 327° |
| 2026-05-05 17:04 | 52.75690 | -1.36436 | 17325 ft | 412 kts | 327° |
| 2026-05-05 17:04 | 52.78117 | -1.38914 | 17057 ft | 408 kts | 327° |
| 2026-05-05 17:04 | 52.80507 | -1.41357 | 16600 ft | 402 kts | 327° |
| 2026-05-05 17:05 | 52.82872 | -1.43778 | 16001 ft | 399 kts | 327° |
| 2026-05-05 17:05 | 52.85220 | -1.46184 | 15405 ft | 395 kts | 327° |
| 2026-05-05 17:05 | 52.87549 | -1.48563 | 14823 ft | 391 kts | 327° |
| 2026-05-05 17:05 | 52.89854 | -1.50934 | 14247 ft | 388 kts | 327° |
| 2026-05-05 17:06 | 52.92133 | -1.53281 | 13634 ft | 384 kts | 327° |
| 2026-05-05 17:06 | 52.94386 | -1.55603 | 13025 ft | 379 kts | 327° |
| 2026-05-05 17:06 | 52.96611 | -1.57899 | 12437 ft | 375 kts | 327° |
| 2026-05-05 17:06 | 52.98821 | -1.60181 | 11962 ft | 369 kts | 327° |
| 2026-05-05 17:07 | 53.00934 | -1.62363 | 11823 ft | 353 kts | 327° |
| 2026-05-05 17:07 | 53.02991 | -1.64489 | 11690 ft | 337 kts | 327° |
| 2026-05-05 17:07 | 53.04912 | -1.66559 | 11536 ft | 322 kts | 322° |
| 2026-05-05 17:07 | 53.06502 | -1.69044 | 11425 ft | 307 kts | 310° |
| 2026-05-05 17:08 | 53.07869 | -1.71685 | 11290 ft | 295 kts | 309° |
| 2026-05-05 17:08 | 53.09173 | -1.74243 | 11142 ft | 285 kts | 309° |
| 2026-05-05 17:08 | 53.10457 | -1.76751 | 10702 ft | 286 kts | 310° |
| 2026-05-05 17:08 | 53.11753 | -1.79267 | 10299 ft | 286 kts | 310° |
| 2026-05-05 17:09 | 53.13046 | -1.81780 | 9924 ft | 285 kts | 310° |
| 2026-05-05 17:09 | 53.14327 | -1.84280 | 9516 ft | 283 kts | 310° |
| 2026-05-05 17:09 | 53.15604 | -1.86771 | 9098 ft | 281 kts | 310° |
| 2026-05-05 17:09 | 53.16870 | -1.89241 | 8686 ft | 279 kts | 310° |
| 2026-05-05 17:10 | 53.18117 | -1.91675 | 8459 ft | 272 kts | 310° |
| 2026-05-05 17:10 | 53.19319 | -1.94022 | 8289 ft | 262 kts | 310° |
| 2026-05-05 17:10 | 53.20480 | -1.96287 | 8148 ft | 252 kts | 310° |
| 2026-05-05 17:10 | 53.21597 | -1.98470 | 7989 ft | 243 kts | 310° |
| 2026-05-05 17:11 | 53.22670 | -2.00576 | 7881 ft | 232 kts | 310° |
| 2026-05-05 17:11 | 53.23553 | -2.02731 | 7748 ft | 219 kts | 298° |
| 2026-05-05 17:11 | 53.23945 | -2.05099 | 7572 ft | 207 kts | 275° |
| 2026-05-05 17:11 | 53.23979 | -2.07422 | 7332 ft | 200 kts | 271° |
| 2026-05-05 17:12 | 53.23977 | -2.09725 | 7004 ft | 197 kts | 271° |
| 2026-05-05 17:12 | 53.23984 | -2.11998 | 6596 ft | 196 kts | 271° |
| 2026-05-05 17:12 | 53.23999 | -2.14276 | 6165 ft | 195 kts | 272° |
| 2026-05-05 17:12 | 53.24018 | -2.16533 | 5754 ft | 194 kts | 272° |
| 2026-05-05 17:13 | 53.24038 | -2.18781 | 5330 ft | 193 kts | 272° |
| 2026-05-05 17:13 | 53.24059 | -2.21021 | 4920 ft | 192 kts | 272° |
| 2026-05-05 17:13 | 53.23983 | -2.23231 | 4557 ft | 191 kts | 258° |
| 2026-05-05 17:13 | 53.23329 | -2.25151 | 4480 ft | 192 kts | 233° |
| 2026-05-05 17:14 | 53.22465 | -2.26852 | 4483 ft | 193 kts | 230° |
| 2026-05-05 17:14 | 53.21576 | -2.28527 | 4481 ft | 193 kts | 230° |
| 2026-05-05 17:14 | 53.20686 | -2.30201 | 4499 ft | 193 kts | 230° |
| 2026-05-05 17:14 | 53.19794 | -2.31877 | 4502 ft | 193 kts | 230° |
| 2026-05-05 17:15 | 53.18907 | -2.33545 | 4441 ft | 190 kts | 230° |
| 2026-05-05 17:15 | 53.18032 | -2.35190 | 4024 ft | 191 kts | 230° |
| 2026-05-05 17:15 | 53.17147 | -2.36855 | 3620 ft | 191 kts | 230° |
| 2026-05-05 17:15 | 53.16270 | -2.38500 | 3498 ft | 189 kts | 230° |
| 2026-05-05 17:16 | 53.15393 | -2.40142 | 3487 ft | 190 kts | 230° |
| 2026-05-05 17:16 | 53.14569 | -2.41852 | 3479 ft | 190 kts | 241° |
| 2026-05-05 17:16 | 53.14335 | -2.43973 | 3462 ft | 188 kts | 278° |
| 2026-05-05 17:16 | 53.14882 | -2.45917 | 3117 ft | 186 kts | 314° |
| 2026-05-05 17:17 | 53.15838 | -2.47276 | 2998 ft | 180 kts | 324° |
| 2026-05-05 17:17 | 53.16855 | -2.48505 | 2990 ft | 181 kts | 325° |
| 2026-05-05 17:17 | 53.17879 | -2.49726 | 2989 ft | 181 kts | 325° |
| 2026-05-05 17:17 | 53.18931 | -2.50860 | 2985 ft | 182 kts | 334° |
| 2026-05-05 17:18 | 53.20163 | -2.51342 | 2998 ft | 181 kts | 353° |
| 2026-05-05 17:18 | 53.21419 | -2.51547 | 2997 ft | 182 kts | 354° |
| 2026-05-05 17:18 | 53.22692 | -2.51724 | 2993 ft | 188 kts | 355° |
| 2026-05-05 17:18 | 53.24018 | -2.51900 | 2992 ft | 192 kts | 355° |
| 2026-05-05 17:19 | 53.25262 | -2.51463 | 2979 ft | 173 kts | 23° |
| 2026-05-05 17:19 | 53.26120 | -2.50339 | 2929 ft | 149 kts | 63° |
| 2026-05-05 17:19 | 53.26358 | -2.48757 | 2969 ft | 137 kts | 77° |
| 2026-05-05 17:19 | 53.26637 | -2.47235 | 2991 ft | 137 kts | 66° |
| 2026-05-05 17:20 | 53.27041 | -2.45792 | 2996 ft | 137 kts | 60° |
| 2026-05-05 17:20 | 53.27501 | -2.44388 | 2996 ft | 138 kts | 59° |
| 2026-05-05 17:20 | 53.27994 | -2.42845 | 2821 ft | 165 kts | 58° |
| 2026-05-05 17:20 | 53.28641 | -2.41246 | 2582 ft | 163 kts | 48° |
| 2026-05-05 17:21 | 53.29365 | -2.39887 | 2371 ft | 153 kts | 46° |
| 2026-05-05 17:21 | 53.30068 | -2.38544 | 1979 ft | 154 kts | 48° |
| 2026-05-05 17:21 | 53.30759 | -2.37154 | 1540 ft | 158 kts | 47° |
| 2026-05-05 17:22 | 53.32035 | -2.34449 | 1014 ft | 144 kts | 51° |
| 2026-05-05 17:22 | 53.32633 | -2.33134 | 797 ft | 140 kts | 50° |
| 2026-05-05 17:22 | 53.33252 | -2.31892 | 624 ft | 139 kts | 50° |
| 2026-05-05 17:22 | 53.33868 | -2.30594 | 509 ft | 140 kts | 50° |
| 2026-05-05 17:23 | 53.34480 | -2.29306 | 355 ft | 149 kts | 48° |
| 2026-05-05 17:23 | 53.35148 | -2.27962 | 255 ft | 146 kts | 51° |
| 2026-05-05 17:23 | 53.35719 | -2.26781 | 255 ft | 104 kts | 50° |
| 2026-05-05 17:23 | 53.35980 | -2.26246 | 260 ft | 29 kts | 50° |
| 2026-05-05 17:24 | 53.36057 | -2.26163 | 261 ft | 0 kts | 354° |
| 2026-05-05 17:24 | 53.36089 | -2.26193 | 261 ft | 8 kts | 328° |
| 2026-05-05 17:24 | 53.36126 | -2.26251 | 262 ft | 4 kts | 278° |
| 2026-05-05 17:24 | 53.36116 | -2.26317 | 261 ft | 8 kts | 253° |
| 2026-05-05 17:25 | 53.36091 | -2.26414 | 260 ft | 8 kts | 234° |
| 2026-05-05 17:25 | 53.36089 | -2.26418 | 260 ft | 0 kts | 234° |
| 2026-05-05 17:36 | 53.36076 | -2.26447 | 260 ft | 6 kts | 234° |
| 2026-05-05 17:36 | 53.36038 | -2.26534 | 258 ft | 12 kts | 232° |
| 2026-05-05 17:36 | 53.35963 | -2.26695 | 257 ft | 23 kts | 231° |
| 2026-05-05 17:36 | 53.35872 | -2.26890 | 254 ft | 21 kts | 233° |
| 2026-05-05 17:37 | 53.35790 | -2.27103 | 251 ft | 22 kts | 230° |
| 2026-05-05 17:37 | 53.35719 | -2.27246 | 249 ft | 25 kts | 232° |
| 2026-05-05 17:37 | 53.35627 | -2.27496 | 247 ft | 11 kts | 279° |
| 2026-05-05 17:37 | 53.35689 | -2.27609 | 246 ft | 17 kts | 329° |
| 2026-05-05 17:38 | 53.35801 | -2.27711 | 247 ft | 20 kts | 317° |
| 2026-05-05 17:38 | 53.35920 | -2.27844 | 247 ft | 21 kts | 356° |
| 2026-05-05 17:38 | 53.36079 | -2.27875 | 248 ft | 24 kts | 325° |
| 2026-05-05 17:38 | 53.36205 | -2.28073 | 247 ft | 23 kts | 332° |
| 2026-05-05 17:39 | 53.36329 | -2.28030 | 248 ft | 19 kts | 35° |
| 2026-05-05 17:39 | 53.36416 | -2.27857 | 250 ft | 20 kts | 55° |
| 2026-05-05 17:39 | 53.36457 | -2.27777 | 251 ft | 0 kts | 45° |
| 2026-05-05 17:39 | 53.36460 | -2.27772 | 251 ft | 2 kts | 46° |